sensor_id;sensor_type;location;lat;lon;timestamp;temperature;humidity
74171;DHT22;62526;50.948;6.590;2024-02-26T00:00:09;11.40;93.90
74171;DHT22;62526;50.948;6.590;2024-02-26T00:02:37;11.40;94.10
74171;DHT22;62526;50.948;6.590;2024-02-26T00:05:05;11.40;94.40
74171;DHT22;62526;50.948;6.590;2024-02-26T00:07:31;11.30;94.30
74171;DHT22;62526;50.948;6.590;2024-02-26T00:09:58;11.40;94.50
74171;DHT22;62526;50.948;6.590;2024-02-26T00:12:25;11.40;94.60
74171;DHT22;62526;50.948;6.590;2024-02-26T00:14:51;11.30;94.70
74171;DHT22;62526;50.948;6.590;2024-02-26T00:17:18;11.40;95.10
74171;DHT22;62526;50.948;6.590;2024-02-26T00:19:45;11.40;95.20
74171;DHT22;62526;50.948;6.590;2024-02-26T00:22:11;11.50;95.20
74171;DHT22;62526;50.948;6.590;2024-02-26T00:24:39;11.40;93.70
74171;DHT22;62526;50.948;6.590;2024-02-26T00:27:05;11.40;95.40
74171;DHT22;62526;50.948;6.590;2024-02-26T00:29:31;11.30;95.30
74171;DHT22;62526;50.948;6.590;2024-02-26T00:31:58;11.30;95.60
74171;DHT22;62526;50.948;6.590;2024-02-26T00:34:25;11.30;95.50
74171;DHT22;62526;50.948;6.590;2024-02-26T00:36:52;11.20;95.20
74171;DHT22;62526;50.948;6.590;2024-02-26T00:39:19;11.20;95.50
74171;DHT22;62526;50.948;6.590;2024-02-26T00:41:46;11.20;95.60
74171;DHT22;62526;50.948;6.590;2024-02-26T00:44:12;11.20;95.80
74171;DHT22;62526;50.948;6.590;2024-02-26T00:46:39;11.20;95.90
74171;DHT22;62526;50.948;6.590;2024-02-26T00:49:06;11.10;96.10
74171;DHT22;62526;50.948;6.590;2024-02-26T00:51:32;11.10;96.00
74171;DHT22;62526;50.948;6.590;2024-02-26T00:53:59;11.10;96.00
74171;DHT22;62526;50.948;6.590;2024-02-26T00:56:25;11.10;96.20
74171;DHT22;62526;50.948;6.590;2024-02-26T00:58:52;11.10;96.40
74171;DHT22;62526;50.948;6.590;2024-02-26T01:01:19;11.10;96.50
74171;DHT22;62526;50.948;6.590;2024-02-26T01:03:46;11.10;96.60
74171;DHT22;62526;50.948;6.590;2024-02-26T01:06:13;11.10;96.70
74171;DHT22;62526;50.948;6.590;2024-02-26T01:08:39;11.10;96.30
74171;DHT22;62526;50.948;6.590;2024-02-26T01:11:06;11.10;96.30
74171;DHT22;62526;50.948;6.590;2024-02-26T01:13:34;11.10;96.60
74171;DHT22;62526;50.948;6.590;2024-02-26T01:16:01;11.10;96.50
74171;DHT22;62526;50.948;6.590;2024-02-26T01:18:28;11.00;96.60
74171;DHT22;62526;50.948;6.590;2024-02-26T01:20:55;11.00;96.80
74171;DHT22;62526;50.948;6.590;2024-02-26T01:23:22;11.00;97.00
74171;DHT22;62526;50.948;6.590;2024-02-26T01:25:48;11.00;97.00
74171;DHT22;62526;50.948;6.590;2024-02-26T01:28:15;11.00;97.30
74171;DHT22;62526;50.948;6.590;2024-02-26T01:30:42;11.00;97.40
74171;DHT22;62526;50.948;6.590;2024-02-26T01:33:09;11.00;98.10
74171;DHT22;62526;50.948;6.590;2024-02-26T01:35:36;11.00;97.70
74171;DHT22;62526;50.948;6.590;2024-02-26T01:38:03;11.00;97.60
74171;DHT22;62526;50.948;6.590;2024-02-26T01:40:30;11.00;97.80
74171;DHT22;62526;50.948;6.590;2024-02-26T01:42:57;11.00;98.00
74171;DHT22;62526;50.948;6.590;2024-02-26T01:45:24;11.00;98.10
74171;DHT22;62526;50.948;6.590;2024-02-26T01:47:50;11.00;98.30
74171;DHT22;62526;50.948;6.590;2024-02-26T01:50:17;11.00;98.50
74171;DHT22;62526;50.948;6.590;2024-02-26T01:52:45;11.00;98.60
74171;DHT22;62526;50.948;6.590;2024-02-26T01:55:11;11.00;98.60
74171;DHT22;62526;50.948;6.590;2024-02-26T01:57:39;11.00;98.40
74171;DHT22;62526;50.948;6.590;2024-02-26T02:00:07;11.00;98.70
74171;DHT22;62526;50.948;6.590;2024-02-26T02:02:33;11.00;98.60
74171;DHT22;62526;50.948;6.590;2024-02-26T02:05:00;11.00;98.80
74171;DHT22;62526;50.948;6.590;2024-02-26T02:07:27;10.90;98.90
74171;DHT22;62526;50.948;6.590;2024-02-26T02:09:53;11.00;99.00
74171;DHT22;62526;50.948;6.590;2024-02-26T02:12:20;11.00;98.70
74171;DHT22;62526;50.948;6.590;2024-02-26T02:14:46;11.00;98.90
74171;DHT22;62526;50.948;6.590;2024-02-26T02:17:14;10.90;99.30
74171;DHT22;62526;50.948;6.590;2024-02-26T02:19:41;10.90;99.20
74171;DHT22;62526;50.948;6.590;2024-02-26T02:22:07;10.90;99.30
74171;DHT22;62526;50.948;6.590;2024-02-26T02:24:34;11.00;99.70
74171;DHT22;62526;50.948;6.590;2024-02-26T02:27:01;11.00;99.50
74171;DHT22;62526;50.948;6.590;2024-02-26T02:29:36;11.00;99.40
74171;DHT22;62526;50.948;6.590;2024-02-26T02:32:06;11.00;99.30
74171;DHT22;62526;50.948;6.590;2024-02-26T02:34:33;11.00;99.50
74171;DHT22;62526;50.948;6.590;2024-02-26T02:37:00;11.00;99.50
74171;DHT22;62526;50.948;6.590;2024-02-26T02:39:29;11.00;99.60
74171;DHT22;62526;50.948;6.590;2024-02-26T02:41:56;11.00;99.60
74171;DHT22;62526;50.948;6.590;2024-02-26T02:44:23;8.30;97.60
74171;DHT22;62526;50.948;6.590;2024-02-26T02:46:49;11.00;99.70
74171;DHT22;62526;50.948;6.590;2024-02-26T02:49:16;10.90;99.80
74171;DHT22;62526;50.948;6.590;2024-02-26T02:51:43;10.80;99.90
74171;DHT22;62526;50.948;6.590;2024-02-26T02:54:09;10.80;99.90
74171;DHT22;62526;50.948;6.590;2024-02-26T02:56:36;10.80;99.90
74171;DHT22;62526;50.948;6.590;2024-02-26T02:59:03;10.80;98.30
74171;DHT22;62526;50.948;6.590;2024-02-26T03:01:30;10.80;99.90
74171;DHT22;62526;50.948;6.590;2024-02-26T03:03:56;10.80;99.90
74171;DHT22;62526;50.948;6.590;2024-02-26T03:06:23;10.80;99.90
74171;DHT22;62526;50.948;6.590;2024-02-26T03:08:50;10.80;99.90
74171;DHT22;62526;50.948;6.590;2024-02-26T03:11:17;10.90;99.90
74171;DHT22;62526;50.948;6.590;2024-02-26T03:13:44;10.80;99.90
74171;DHT22;62526;50.948;6.590;2024-02-26T03:16:11;10.80;99.90
74171;DHT22;62526;50.948;6.590;2024-02-26T03:18:39;10.80;99.90
74171;DHT22;62526;50.948;6.590;2024-02-26T03:21:06;10.80;99.90
74171;DHT22;62526;50.948;6.590;2024-02-26T03:23:33;10.80;99.90
74171;DHT22;62526;50.948;6.590;2024-02-26T03:26:00;10.70;99.90
74171;DHT22;62526;50.948;6.590;2024-02-26T03:28:27;10.70;99.90
74171;DHT22;62526;50.948;6.590;2024-02-26T03:30:53;10.70;99.90
74171;DHT22;62526;50.948;6.590;2024-02-26T03:33:20;10.70;99.90
74171;DHT22;62526;50.948;6.590;2024-02-26T03:35:48;10.80;99.90
74171;DHT22;62526;50.948;6.590;2024-02-26T03:38:14;10.70;99.90
74171;DHT22;62526;50.948;6.590;2024-02-26T03:40:41;10.80;99.90
74171;DHT22;62526;50.948;6.590;2024-02-26T03:43:08;10.80;99.90
74171;DHT22;62526;50.948;6.590;2024-02-26T03:45:34;10.80;99.90
74171;DHT22;62526;50.948;6.590;2024-02-26T03:48:01;10.90;99.90
74171;DHT22;62526;50.948;6.590;2024-02-26T03:50:28;10.90;99.90
74171;DHT22;62526;50.948;6.590;2024-02-26T03:52:55;10.90;99.90
74171;DHT22;62526;50.948;6.590;2024-02-26T03:55:22;11.00;99.90
74171;DHT22;62526;50.948;6.590;2024-02-26T03:57:48;11.00;99.90
74171;DHT22;62526;50.948;6.590;2024-02-26T04:00:15;11.00;99.90
74171;DHT22;62526;50.948;6.590;2024-02-26T04:02:42;10.90;99.90
74171;DHT22;62526;50.948;6.590;2024-02-26T04:05:10;10.90;99.90
74171;DHT22;62526;50.948;6.590;2024-02-26T04:07:37;10.80;99.90
74171;DHT22;62526;50.948;6.590;2024-02-26T04:10:08;10.80;99.90
74171;DHT22;62526;50.948;6.590;2024-02-26T04:12:31;10.70;99.90
74171;DHT22;62526;50.948;6.590;2024-02-26T04:14:58;10.70;99.90
74171;DHT22;62526;50.948;6.590;2024-02-26T04:17:26;10.70;99.90
74171;DHT22;62526;50.948;6.590;2024-02-26T04:19:52;10.70;99.90
74171;DHT22;62526;50.948;6.590;2024-02-26T04:22:19;10.70;99.90
74171;DHT22;62526;50.948;6.590;2024-02-26T04:24:46;10.70;99.90
74171;DHT22;62526;50.948;6.590;2024-02-26T04:27:13;10.70;99.90
74171;DHT22;62526;50.948;6.590;2024-02-26T04:29:40;10.70;99.90
74171;DHT22;62526;50.948;6.590;2024-02-26T04:32:07;10.80;99.90
74171;DHT22;62526;50.948;6.590;2024-02-26T04:34:33;10.80;99.90
74171;DHT22;62526;50.948;6.590;2024-02-26T04:37:02;10.80;99.90
74171;DHT22;62526;50.948;6.590;2024-02-26T04:39:28;10.80;99.90
74171;DHT22;62526;50.948;6.590;2024-02-26T04:41:55;10.80;99.90
74171;DHT22;62526;50.948;6.590;2024-02-26T04:44:21;10.80;99.90
74171;DHT22;62526;50.948;6.590;2024-02-26T04:46:48;10.80;99.90
74171;DHT22;62526;50.948;6.590;2024-02-26T04:49:15;10.70;99.90
74171;DHT22;62526;50.948;6.590;2024-02-26T04:51:42;10.80;99.90
74171;DHT22;62526;50.948;6.590;2024-02-26T04:54:08;10.80;99.90
74171;DHT22;62526;50.948;6.590;2024-02-26T04:56:35;10.80;99.90
74171;DHT22;62526;50.948;6.590;2024-02-26T04:59:03;10.80;99.90
74171;DHT22;62526;50.948;6.590;2024-02-26T05:01:29;10.90;99.90
74171;DHT22;62526;50.948;6.590;2024-02-26T05:03:56;10.90;99.90
74171;DHT22;62526;50.948;6.590;2024-02-26T05:06:23;10.90;99.90
74171;DHT22;62526;50.948;6.590;2024-02-26T05:08:52;10.90;99.90
74171;DHT22;62526;50.948;6.590;2024-02-26T05:11:19;10.90;99.90
74171;DHT22;62526;50.948;6.590;2024-02-26T05:13:45;10.90;99.90
74171;DHT22;62526;50.948;6.590;2024-02-26T05:16:12;10.90;99.90
74171;DHT22;62526;50.948;6.590;2024-02-26T05:18:39;10.80;99.90
74171;DHT22;62526;50.948;6.590;2024-02-26T05:21:05;10.80;99.90
74171;DHT22;62526;50.948;6.590;2024-02-26T05:23:32;10.80;99.90
74171;DHT22;62526;50.948;6.590;2024-02-26T05:25:59;10.80;99.90
74171;DHT22;62526;50.948;6.590;2024-02-26T05:28:26;10.80;99.90
74171;DHT22;62526;50.948;6.590;2024-02-26T05:30:53;10.80;99.90
74171;DHT22;62526;50.948;6.590;2024-02-26T05:33:20;10.70;99.90
74171;DHT22;62526;50.948;6.590;2024-02-26T05:35:47;10.70;99.90
74171;DHT22;62526;50.948;6.590;2024-02-26T05:38:13;10.70;99.90
74171;DHT22;62526;50.948;6.590;2024-02-26T05:40:40;10.80;99.90
74171;DHT22;62526;50.948;6.590;2024-02-26T05:43:07;10.70;99.90
74171;DHT22;62526;50.948;6.590;2024-02-26T05:45:34;10.70;99.90
74171;DHT22;62526;50.948;6.590;2024-02-26T05:48:00;10.60;99.90
74171;DHT22;62526;50.948;6.590;2024-02-26T05:50:27;10.70;99.90
74171;DHT22;62526;50.948;6.590;2024-02-26T05:52:54;10.60;99.90
74171;DHT22;62526;50.948;6.590;2024-02-26T05:55:21;10.70;99.90
74171;DHT22;62526;50.948;6.590;2024-02-26T05:57:48;10.70;99.90
74171;DHT22;62526;50.948;6.590;2024-02-26T06:00:15;10.70;99.90
74171;DHT22;62526;50.948;6.590;2024-02-26T06:02:43;10.70;99.90
74171;DHT22;62526;50.948;6.590;2024-02-26T06:05:10;10.70;99.90
74171;DHT22;62526;50.948;6.590;2024-02-26T06:07:37;10.70;99.90
74171;DHT22;62526;50.948;6.590;2024-02-26T06:10:04;10.70;99.90
74171;DHT22;62526;50.948;6.590;2024-02-26T06:12:31;10.70;99.90
74171;DHT22;62526;50.948;6.590;2024-02-26T06:14:58;10.60;99.90
74171;DHT22;62526;50.948;6.590;2024-02-26T06:17:25;10.60;99.90
74171;DHT22;62526;50.948;6.590;2024-02-26T06:19:52;10.50;99.90
74171;DHT22;62526;50.948;6.590;2024-02-26T06:22:19;10.50;99.90
74171;DHT22;62526;50.948;6.590;2024-02-26T06:24:46;10.50;99.90
74171;DHT22;62526;50.948;6.590;2024-02-26T06:27:13;10.50;99.90
74171;DHT22;62526;50.948;6.590;2024-02-26T06:29:40;10.50;99.90
74171;DHT22;62526;50.948;6.590;2024-02-26T06:32:06;10.40;99.90
74171;DHT22;62526;50.948;6.590;2024-02-26T06:34:33;10.50;99.90
74171;DHT22;62526;50.948;6.590;2024-02-26T06:37:00;10.50;99.90
74171;DHT22;62526;50.948;6.590;2024-02-26T06:39:27;10.50;99.90
74171;DHT22;62526;50.948;6.590;2024-02-26T06:41:55;10.50;99.90
74171;DHT22;62526;50.948;6.590;2024-02-26T06:44:22;10.50;99.90
74171;DHT22;62526;50.948;6.590;2024-02-26T06:46:49;10.50;99.90
74171;DHT22;62526;50.948;6.590;2024-02-26T06:49:16;10.50;99.90
74171;DHT22;62526;50.948;6.590;2024-02-26T06:51:43;10.60;99.90
74171;DHT22;62526;50.948;6.590;2024-02-26T06:54:10;10.60;99.90
74171;DHT22;62526;50.948;6.590;2024-02-26T06:56:37;10.60;99.90
74171;DHT22;62526;50.948;6.590;2024-02-26T06:59:05;10.50;99.90
74171;DHT22;62526;50.948;6.590;2024-02-26T07:01:32;10.50;99.90
74171;DHT22;62526;50.948;6.590;2024-02-26T07:04:00;10.60;99.90
74171;DHT22;62526;50.948;6.590;2024-02-26T07:06:27;10.50;99.90
74171;DHT22;62526;50.948;6.590;2024-02-26T07:08:54;10.50;99.90
74171;DHT22;62526;50.948;6.590;2024-02-26T07:11:21;10.50;99.90
74171;DHT22;62526;50.948;6.590;2024-02-26T07:13:47;10.50;99.90
74171;DHT22;62526;50.948;6.590;2024-02-26T07:16:15;10.50;99.90
74171;DHT22;62526;50.948;6.590;2024-02-26T07:18:41;10.50;99.90
74171;DHT22;62526;50.948;6.590;2024-02-26T07:21:08;10.50;99.90
74171;DHT22;62526;50.948;6.590;2024-02-26T07:23:35;10.50;99.90
74171;DHT22;62526;50.948;6.590;2024-02-26T07:26:04;10.40;99.90
74171;DHT22;62526;50.948;6.590;2024-02-26T07:28:32;10.50;99.90
74171;DHT22;62526;50.948;6.590;2024-02-26T07:30:58;10.50;99.90
74171;DHT22;62526;50.948;6.590;2024-02-26T07:33:26;10.60;99.90
74171;DHT22;62526;50.948;6.590;2024-02-26T07:35:53;10.60;99.90
74171;DHT22;62526;50.948;6.590;2024-02-26T07:38:32;10.60;99.90
74171;DHT22;62526;50.948;6.590;2024-02-26T07:41:14;10.50;99.90
74171;DHT22;62526;50.948;6.590;2024-02-26T07:43:47;10.50;99.90
74171;DHT22;62526;50.948;6.590;2024-02-26T07:46:14;10.50;99.90
74171;DHT22;62526;50.948;6.590;2024-02-26T07:48:41;10.50;99.90
74171;DHT22;62526;50.948;6.590;2024-02-26T07:51:08;10.50;99.90
74171;DHT22;62526;50.948;6.590;2024-02-26T07:53:35;10.50;99.90
74171;DHT22;62526;50.948;6.590;2024-02-26T07:56:01;10.50;99.90
74171;DHT22;62526;50.948;6.590;2024-02-26T07:58:28;10.50;99.90
74171;DHT22;62526;50.948;6.590;2024-02-26T08:00:55;10.50;99.90
74171;DHT22;62526;50.948;6.590;2024-02-26T08:03:22;10.60;99.90
74171;DHT22;62526;50.948;6.590;2024-02-26T08:05:48;10.50;99.90
74171;DHT22;62526;50.948;6.590;2024-02-26T08:08:15;10.50;99.90
74171;DHT22;62526;50.948;6.590;2024-02-26T08:10:41;10.50;99.90
74171;DHT22;62526;50.948;6.590;2024-02-26T08:13:08;10.40;99.90
74171;DHT22;62526;50.948;6.590;2024-02-26T08:15:36;10.50;99.90
74171;DHT22;62526;50.948;6.590;2024-02-26T08:18:05;10.50;99.90
74171;DHT22;62526;50.948;6.590;2024-02-26T08:20:32;10.60;99.90
74171;DHT22;62526;50.948;6.590;2024-02-26T08:22:59;10.50;99.90
74171;DHT22;62526;50.948;6.590;2024-02-26T08:25:26;10.60;99.90
74171;DHT22;62526;50.948;6.590;2024-02-26T08:27:53;10.60;99.90
74171;DHT22;62526;50.948;6.590;2024-02-26T08:30:20;10.70;99.90
74171;DHT22;62526;50.948;6.590;2024-02-26T08:32:47;10.60;99.90
74171;DHT22;62526;50.948;6.590;2024-02-26T08:35:13;10.70;99.90
74171;DHT22;62526;50.948;6.590;2024-02-26T08:37:40;10.70;99.90
74171;DHT22;62526;50.948;6.590;2024-02-26T08:40:08;10.60;99.90
74171;DHT22;62526;50.948;6.590;2024-02-26T08:42:34;10.60;99.90
74171;DHT22;62526;50.948;6.590;2024-02-26T08:45:01;10.60;99.90
74171;DHT22;62526;50.948;6.590;2024-02-26T08:47:28;10.60;99.90
74171;DHT22;62526;50.948;6.590;2024-02-26T08:49:55;10.60;99.90
74171;DHT22;62526;50.948;6.590;2024-02-26T08:52:22;10.60;99.90
74171;DHT22;62526;50.948;6.590;2024-02-26T08:54:49;10.60;99.90
74171;DHT22;62526;50.948;6.590;2024-02-26T08:57:17;10.50;99.90
74171;DHT22;62526;50.948;6.590;2024-02-26T08:59:44;10.50;99.90
74171;DHT22;62526;50.948;6.590;2024-02-26T09:02:11;10.40;99.90
74171;DHT22;62526;50.948;6.590;2024-02-26T09:04:39;10.60;99.90
74171;DHT22;62526;50.948;6.590;2024-02-26T09:07:06;10.70;99.90
74171;DHT22;62526;50.948;6.590;2024-02-26T09:09:32;10.50;99.90
74171;DHT22;62526;50.948;6.590;2024-02-26T09:12:00;10.40;99.90
74171;DHT22;62526;50.948;6.590;2024-02-26T09:14:27;10.40;99.90
74171;DHT22;62526;50.948;6.590;2024-02-26T09:16:55;10.40;99.90
74171;DHT22;62526;50.948;6.590;2024-02-26T09:19:23;10.50;99.90
74171;DHT22;62526;50.948;6.590;2024-02-26T09:21:49;10.40;99.90
74171;DHT22;62526;50.948;6.590;2024-02-26T09:24:16;10.40;99.90
74171;DHT22;62526;50.948;6.590;2024-02-26T09:26:43;10.50;99.90
74171;DHT22;62526;50.948;6.590;2024-02-26T09:29:09;10.60;99.90
74171;DHT22;62526;50.948;6.590;2024-02-26T09:31:36;10.60;99.90
74171;DHT22;62526;50.948;6.590;2024-02-26T09:34:04;10.60;99.90
74171;DHT22;62526;50.948;6.590;2024-02-26T09:36:30;10.60;99.90
74171;DHT22;62526;50.948;6.590;2024-02-26T09:38:58;10.60;99.90
74171;DHT22;62526;50.948;6.590;2024-02-26T09:41:24;10.60;99.90
74171;DHT22;62526;50.948;6.590;2024-02-26T09:43:51;10.60;99.90
74171;DHT22;62526;50.948;6.590;2024-02-26T09:46:18;10.60;99.90
74171;DHT22;62526;50.948;6.590;2024-02-26T09:48:44;10.80;99.90
74171;DHT22;62526;50.948;6.590;2024-02-26T09:51:11;10.70;99.90
74171;DHT22;62526;50.948;6.590;2024-02-26T09:53:38;10.70;99.90
74171;DHT22;62526;50.948;6.590;2024-02-26T09:56:06;10.90;99.90
74171;DHT22;62526;50.948;6.590;2024-02-26T09:58:33;10.90;99.90
74171;DHT22;62526;50.948;6.590;2024-02-26T10:01:00;10.90;99.90
74171;DHT22;62526;50.948;6.590;2024-02-26T10:03:31;10.90;99.90
74171;DHT22;62526;50.948;6.590;2024-02-26T10:05:56;10.80;99.90
74171;DHT22;62526;50.948;6.590;2024-02-26T10:08:23;10.90;99.90
74171;DHT22;62526;50.948;6.590;2024-02-26T10:10:50;11.00;99.90
74171;DHT22;62526;50.948;6.590;2024-02-26T10:13:17;11.00;99.90
74171;DHT22;62526;50.948;6.590;2024-02-26T10:15:44;11.00;99.90
74171;DHT22;62526;50.948;6.590;2024-02-26T10:18:12;8.00;99.90
74171;DHT22;62526;50.948;6.590;2024-02-26T10:20:39;11.00;99.90
74171;DHT22;62526;50.948;6.590;2024-02-26T10:23:05;11.10;99.90
74171;DHT22;62526;50.948;6.590;2024-02-26T10:25:33;11.20;99.90
74171;DHT22;62526;50.948;6.590;2024-02-26T10:28:00;11.20;99.90
74171;DHT22;62526;50.948;6.590;2024-02-26T10:30:30;11.20;99.90
74171;DHT22;62526;50.948;6.590;2024-02-26T10:32:56;11.50;99.90
74171;DHT22;62526;50.948;6.590;2024-02-26T10:35:23;11.50;99.90
74171;DHT22;62526;50.948;6.590;2024-02-26T10:37:51;11.60;99.90
74171;DHT22;62526;50.948;6.590;2024-02-26T10:40:18;11.70;99.90
74171;DHT22;62526;50.948;6.590;2024-02-26T10:42:45;11.70;99.90
74171;DHT22;62526;50.948;6.590;2024-02-26T10:45:12;11.60;99.90
74171;DHT22;62526;50.948;6.590;2024-02-26T10:47:40;11.70;99.90
74171;DHT22;62526;50.948;6.590;2024-02-26T10:50:06;11.70;99.90
74171;DHT22;62526;50.948;6.590;2024-02-26T10:52:33;11.60;99.90
74171;DHT22;62526;50.948;6.590;2024-02-26T10:55:01;11.70;99.90
74171;DHT22;62526;50.948;6.590;2024-02-26T10:57:27;11.80;99.90
74171;DHT22;62526;50.948;6.590;2024-02-26T10:59:54;11.90;99.90
74171;DHT22;62526;50.948;6.590;2024-02-26T11:02:21;11.90;99.90
74171;DHT22;62526;50.948;6.590;2024-02-26T11:04:48;11.90;99.90
74171;DHT22;62526;50.948;6.590;2024-02-26T11:07:16;11.80;99.90
74171;DHT22;62526;50.948;6.590;2024-02-26T11:09:43;11.80;99.90
74171;DHT22;62526;50.948;6.590;2024-02-26T11:12:10;11.90;99.90
74171;DHT22;62526;50.948;6.590;2024-02-26T11:14:38;12.00;99.90
74171;DHT22;62526;50.948;6.590;2024-02-26T11:17:07;12.10;99.90
74171;DHT22;62526;50.948;6.590;2024-02-26T11:19:32;12.00;99.90
74171;DHT22;62526;50.948;6.590;2024-02-26T11:22:00;12.20;99.90
74171;DHT22;62526;50.948;6.590;2024-02-26T11:24:27;12.20;99.90
74171;DHT22;62526;50.948;6.590;2024-02-26T11:26:55;12.20;99.90
74171;DHT22;62526;50.948;6.590;2024-02-26T11:29:22;12.20;99.90
74171;DHT22;62526;50.948;6.590;2024-02-26T11:31:50;12.20;99.90
74171;DHT22;62526;50.948;6.590;2024-02-26T11:34:15;12.10;99.90
74171;DHT22;62526;50.948;6.590;2024-02-26T11:36:46;12.20;99.90
74171;DHT22;62526;50.948;6.590;2024-02-26T11:39:12;12.20;99.90
74171;DHT22;62526;50.948;6.590;2024-02-26T11:41:39;12.10;99.90
74171;DHT22;62526;50.948;6.590;2024-02-26T11:44:08;12.20;99.90
74171;DHT22;62526;50.948;6.590;2024-02-26T11:46:41;12.00;99.90
74171;DHT22;62526;50.948;6.590;2024-02-26T11:51:50;12.10;99.90
74171;DHT22;62526;50.948;6.590;2024-02-26T11:54:13;12.10;99.90
74171;DHT22;62526;50.948;6.590;2024-02-26T11:56:40;12.00;99.90
74171;DHT22;62526;50.948;6.590;2024-02-26T11:59:10;12.00;99.90
74171;DHT22;62526;50.948;6.590;2024-02-26T12:01:45;11.90;99.90
74171;DHT22;62526;50.948;6.590;2024-02-26T12:04:15;11.80;99.90
74171;DHT22;62526;50.948;6.590;2024-02-26T12:06:41;11.80;99.90
74171;DHT22;62526;50.948;6.590;2024-02-26T12:09:07;11.90;99.90
74171;DHT22;62526;50.948;6.590;2024-02-26T12:11:37;11.90;99.90
74171;DHT22;62526;50.948;6.590;2024-02-26T12:14:01;11.90;99.90
74171;DHT22;62526;50.948;6.590;2024-02-26T12:16:36;11.90;99.90
74171;DHT22;62526;50.948;6.590;2024-02-26T12:19:05;11.80;99.90
74171;DHT22;62526;50.948;6.590;2024-02-26T12:21:35;11.70;99.90
74171;DHT22;62526;50.948;6.590;2024-02-26T12:24:11;11.70;99.90
74171;DHT22;62526;50.948;6.590;2024-02-26T12:26:38;11.80;99.90
74171;DHT22;62526;50.948;6.590;2024-02-26T12:29:05;11.80;99.90
74171;DHT22;62526;50.948;6.590;2024-02-26T12:31:32;11.90;99.90
74171;DHT22;62526;50.948;6.590;2024-02-26T12:34:00;11.90;99.90
74171;DHT22;62526;50.948;6.590;2024-02-26T12:36:27;11.90;99.90
74171;DHT22;62526;50.948;6.590;2024-02-26T12:38:53;11.90;99.90
74171;DHT22;62526;50.948;6.590;2024-02-26T12:41:20;11.90;99.90
74171;DHT22;62526;50.948;6.590;2024-02-26T12:43:47;14.70;99.90
74171;DHT22;62526;50.948;6.590;2024-02-26T12:46:15;11.90;99.90
74171;DHT22;62526;50.948;6.590;2024-02-26T12:48:43;11.80;99.90
74171;DHT22;62526;50.948;6.590;2024-02-26T12:51:10;11.90;99.90
74171;DHT22;62526;50.948;6.590;2024-02-26T12:53:37;11.80;99.90
74171;DHT22;62526;50.948;6.590;2024-02-26T12:56:06;11.80;99.90
74171;DHT22;62526;50.948;6.590;2024-02-26T12:58:32;11.80;99.90
74171;DHT22;62526;50.948;6.590;2024-02-26T13:00:59;11.80;99.90
74171;DHT22;62526;50.948;6.590;2024-02-26T13:03:25;11.90;99.90
74171;DHT22;62526;50.948;6.590;2024-02-26T13:05:52;11.90;99.90
74171;DHT22;62526;50.948;6.590;2024-02-26T13:08:20;11.80;99.90
74171;DHT22;62526;50.948;6.590;2024-02-26T13:10:46;11.50;99.90
74171;DHT22;62526;50.948;6.590;2024-02-26T13:13:15;12.00;99.90
74171;DHT22;62526;50.948;6.590;2024-02-26T13:15:41;12.00;99.90
74171;DHT22;62526;50.948;6.590;2024-02-26T13:18:10;12.00;99.90
74171;DHT22;62526;50.948;6.590;2024-02-26T13:20:37;11.90;99.90
74171;DHT22;62526;50.948;6.590;2024-02-26T13:23:05;11.90;99.90
74171;DHT22;62526;50.948;6.590;2024-02-26T13:25:32;11.90;99.90
74171;DHT22;62526;50.948;6.590;2024-02-26T13:28:08;11.80;99.90
74171;DHT22;62526;50.948;6.590;2024-02-26T13:30:35;11.90;99.90
74171;DHT22;62526;50.948;6.590;2024-02-26T13:33:07;12.10;99.90
74171;DHT22;62526;50.948;6.590;2024-02-26T13:35:38;11.80;99.90
74171;DHT22;62526;50.948;6.590;2024-02-26T13:38:08;12.00;99.90
74171;DHT22;62526;50.948;6.590;2024-02-26T13:40:36;12.00;99.90
74171;DHT22;62526;50.948;6.590;2024-02-26T13:43:03;12.00;99.90
74171;DHT22;62526;50.948;6.590;2024-02-26T13:45:29;12.00;99.90
74171;DHT22;62526;50.948;6.590;2024-02-26T13:48:09;12.00;99.90
74171;DHT22;62526;50.948;6.590;2024-02-26T13:50:28;12.00;99.90
74171;DHT22;62526;50.948;6.590;2024-02-26T13:52:55;11.90;99.90
74171;DHT22;62526;50.948;6.590;2024-02-26T13:55:22;12.00;99.90
74171;DHT22;62526;50.948;6.590;2024-02-26T13:57:48;12.00;99.90
74171;DHT22;62526;50.948;6.590;2024-02-26T14:00:16;12.00;99.90
74171;DHT22;62526;50.948;6.590;2024-02-26T14:02:42;12.10;99.90
74171;DHT22;62526;50.948;6.590;2024-02-26T14:05:09;12.10;99.90
74171;DHT22;62526;50.948;6.590;2024-02-26T14:07:36;12.10;99.90
74171;DHT22;62526;50.948;6.590;2024-02-26T14:10:03;12.20;99.90
74171;DHT22;62526;50.948;6.590;2024-02-26T14:12:30;12.20;99.90
74171;DHT22;62526;50.948;6.590;2024-02-26T14:14:57;12.20;99.90
74171;DHT22;62526;50.948;6.590;2024-02-26T14:17:23;12.30;99.90
74171;DHT22;62526;50.948;6.590;2024-02-26T14:19:51;12.30;99.90
74171;DHT22;62526;50.948;6.590;2024-02-26T14:22:17;12.30;99.90
74171;DHT22;62526;50.948;6.590;2024-02-26T14:24:45;12.30;99.90
74171;DHT22;62526;50.948;6.590;2024-02-26T14:27:12;12.20;99.90
74171;DHT22;62526;50.948;6.590;2024-02-26T14:29:41;12.20;99.90
74171;DHT22;62526;50.948;6.590;2024-02-26T14:32:07;12.20;99.90
74171;DHT22;62526;50.948;6.590;2024-02-26T14:34:34;12.10;99.90
74171;DHT22;62526;50.948;6.590;2024-02-26T14:37:01;11.30;99.90
74171;DHT22;62526;50.948;6.590;2024-02-26T14:39:27;12.10;99.90
74171;DHT22;62526;50.948;6.590;2024-02-26T14:41:54;12.10;99.90
74171;DHT22;62526;50.948;6.590;2024-02-26T14:44:21;12.10;99.90
74171;DHT22;62526;50.948;6.590;2024-02-26T14:46:48;12.10;99.90
74171;DHT22;62526;50.948;6.590;2024-02-26T14:49:15;12.10;99.90
74171;DHT22;62526;50.948;6.590;2024-02-26T14:51:41;11.80;99.90
74171;DHT22;62526;50.948;6.590;2024-02-26T14:54:08;11.80;99.90
74171;DHT22;62526;50.948;6.590;2024-02-26T14:56:35;11.80;99.90
74171;DHT22;62526;50.948;6.590;2024-02-26T14:59:01;12.00;99.90
74171;DHT22;62526;50.948;6.590;2024-02-26T15:01:29;11.90;99.90
74171;DHT22;62526;50.948;6.590;2024-02-26T15:03:57;12.00;99.90
74171;DHT22;62526;50.948;6.590;2024-02-26T15:06:24;11.90;99.90
74171;DHT22;62526;50.948;6.590;2024-02-26T15:08:51;11.90;99.90
74171;DHT22;62526;50.948;6.590;2024-02-26T15:11:19;12.00;99.90
74171;DHT22;62526;50.948;6.590;2024-02-26T15:13:45;11.90;99.90
74171;DHT22;62526;50.948;6.590;2024-02-26T15:16:18;11.90;99.90
74171;DHT22;62526;50.948;6.590;2024-02-26T15:18:44;11.90;99.90
74171;DHT22;62526;50.948;6.590;2024-02-26T15:21:11;11.80;99.90
74171;DHT22;62526;50.948;6.590;2024-02-26T15:23:39;12.00;99.90
74171;DHT22;62526;50.948;6.590;2024-02-26T15:26:05;11.90;99.90
74171;DHT22;62526;50.948;6.590;2024-02-26T15:28:32;11.90;99.90
74171;DHT22;62526;50.948;6.590;2024-02-26T15:30:58;12.00;99.90